Terminal Aerodrome Forecast
Issued by NWS

Home | Current Version | Previous Version | Graphics & Text | Print | Product List | Glossary On
Versions: 1 2 3 4 5 6 7 8 9 10 11 12 13 14
000
FTUS43 KGRB 281720
TAFATW
TAF
KATW 281720Z 2818/2918 19012G20KT P6SM SCT100 BKN250
     FM290100 16008KT P6SM SCT250
     FM290600 20007KT 5SM BR VCSH BKN045
      TEMPO 2907/2910 2SM TSRA BKN020CB
     FM291300 26013G25KT P6SM SCT100=

USA.gov is the U.S. government's official web portal to all federal, state and local government web resources and services.